createdAt,value
2023-08-18T00:02:19.629Z,1.06
2023-08-18T00:04:47.071Z,1.49
2023-08-18T00:07:14.588Z,1.00
2023-08-18T00:09:42.190Z,1.17
2023-08-18T00:12:09.868Z,0.98
2023-08-18T00:14:38.028Z,1.09
2023-08-18T00:17:05.710Z,1.00
2023-08-18T00:19:34.830Z,0.98
2023-08-18T00:22:02.507Z,1.04
2023-08-18T00:24:30.031Z,1.17
2023-08-18T00:26:57.469Z,0.91
2023-08-18T00:29:24.991Z,0.90
2023-08-18T00:31:52.511Z,1.24
2023-08-18T00:34:20.054Z,1.11
2023-08-18T00:36:49.159Z,0.91
2023-08-18T00:39:16.828Z,0.83
2023-08-18T00:41:44.286Z,0.88
2023-08-18T00:44:11.963Z,1.05
2023-08-18T00:46:39.943Z,0.96
2023-08-18T00:49:10.766Z,1.01
2023-08-18T00:51:40.996Z,0.84
2023-08-18T00:54:11.630Z,1.09
2023-08-18T00:56:39.147Z,0.88
2023-08-18T00:59:08.110Z,1.17
2023-08-18T01:01:36.353Z,1.28
2023-08-18T01:04:06.226Z,1.21
2023-08-18T01:06:33.881Z,0.92
2023-08-18T01:09:01.629Z,0.92
2023-08-18T01:11:38.678Z,1.11
2023-08-18T01:14:22.835Z,1.14
2023-08-18T01:16:57.984Z,1.09
2023-08-18T01:19:26.838Z,0.99
2023-08-18T01:21:57.070Z,1.01
2023-08-18T01:24:26.115Z,1.20
2023-08-18T01:26:53.659Z,1.16
2023-08-18T01:29:23.661Z,1.21
2023-08-18T01:31:57.401Z,1.12
2023-08-18T01:34:28.914Z,1.22
2023-08-18T01:36:59.309Z,1.15
2023-08-18T01:39:31.464Z,1.07
2023-08-18T01:42:00.672Z,1.12
2023-08-18T01:44:28.271Z,0.88
2023-08-18T01:46:55.725Z,0.99
2023-08-18T01:49:23.484Z,1.14
2023-08-18T01:51:50.998Z,1.11
2023-08-18T01:54:18.532Z,1.13
2023-08-18T01:56:47.715Z,1.07
2023-08-18T01:59:16.038Z,1.13
2023-08-18T02:01:43.492Z,0.99
2023-08-18T02:04:10.992Z,0.91
2023-08-18T02:06:38.590Z,1.14
2023-08-18T02:09:06.113Z,1.11
2023-08-18T02:11:33.789Z,1.31
2023-08-18T02:14:02.748Z,1.19
2023-08-18T02:16:30.314Z,1.25
2023-08-18T02:18:57.869Z,0.97
2023-08-18T02:21:25.631Z,0.89
2023-08-18T02:23:52.916Z,1.09
2023-08-18T02:26:20.538Z,0.90
2023-08-18T02:28:48.032Z,1.00
2023-08-18T02:31:17.078Z,0.96
2023-08-18T02:33:44.671Z,0.99
2023-08-18T02:36:13.694Z,1.27
2023-08-18T02:38:41.474Z,1.17
2023-08-18T02:41:08.989Z,1.05
2023-08-18T02:43:36.688Z,1.25
2023-08-18T02:46:04.237Z,1.12
2023-08-18T02:48:33.554Z,1.10
2023-08-18T02:51:04.310Z,0.90
2023-08-18T02:53:31.875Z,1.10
2023-08-18T02:55:59.470Z,1.19
2023-08-18T02:58:27.952Z,1.10
2023-08-18T03:03:44.352Z,1.02
2023-08-18T03:06:11.550Z,1.05
2023-08-18T03:08:38.639Z,1.06
2023-08-18T03:11:05.825Z,0.91
2023-08-18T03:13:33.140Z,1.14
2023-08-18T03:16:00.427Z,1.29
2023-08-18T03:18:27.675Z,1.18
2023-08-18T03:21:00.993Z,1.56
2023-08-18T03:23:29.068Z,1.05
2023-08-18T03:26:00.460Z,1.07
2023-08-18T03:28:28.281Z,1.21
2023-08-18T03:30:59.572Z,0.97
2023-08-18T03:33:27.477Z,1.42
2023-08-18T03:35:55.160Z,1.15
2023-08-18T03:38:24.696Z,1.07
2023-08-18T03:40:58.996Z,0.98
2023-08-18T03:43:26.681Z,0.98
2023-08-18T03:45:54.226Z,1.22
2023-08-18T03:48:21.719Z,0.94
2023-08-18T03:50:49.238Z,1.23
2023-08-18T03:53:16.782Z,1.08
2023-08-18T03:55:50.225Z,1.12
2023-08-18T03:58:17.878Z,1.18
2023-08-18T04:00:45.168Z,0.80
2023-08-18T04:03:12.778Z,1.20
2023-08-18T04:05:46.363Z,1.11
2023-08-18T04:08:13.882Z,0.97
2023-08-18T04:10:41.402Z,1.10
2023-08-18T04:13:10.552Z,1.27
2023-08-18T04:15:38.140Z,0.93
2023-08-18T04:18:06.718Z,1.11
2023-08-18T04:20:34.362Z,0.94
2023-08-18T04:23:01.881Z,1.01
2023-08-18T04:25:29.488Z,1.01
2023-08-18T04:27:57.006Z,1.23
2023-08-18T04:30:26.212Z,1.01
2023-08-18T04:32:53.776Z,1.35
2023-08-18T04:35:21.321Z,0.94
2023-08-18T04:37:48.838Z,1.01
2023-08-18T04:40:16.362Z,1.42
2023-08-18T04:42:43.883Z,1.09
2023-08-18T04:45:11.802Z,1.22
2023-08-18T04:47:40.959Z,1.08
2023-08-18T04:50:09.725Z,1.06
2023-08-18T04:52:37.326Z,1.32
2023-08-18T04:55:05.651Z,1.39
2023-08-18T04:57:33.173Z,1.12
2023-08-18T05:00:00.607Z,1.11
2023-08-18T05:02:28.420Z,1.30
2023-08-18T05:04:57.718Z,1.24
2023-08-18T05:07:25.404Z,1.10
2023-08-18T05:09:53.007Z,0.88
2023-08-18T05:12:20.449Z,1.09
2023-08-18T05:14:47.961Z,1.09
2023-08-18T05:17:15.640Z,1.11
2023-08-18T05:19:43.080Z,1.40
2023-08-18T05:22:12.198Z,1.32
2023-08-18T05:24:39.722Z,1.00
2023-08-18T05:27:07.163Z,1.36
2023-08-18T05:29:34.680Z,1.09
2023-08-18T05:32:02.195Z,0.97
2023-08-18T05:34:29.560Z,1.00
2023-08-18T05:36:57.090Z,1.17
2023-08-18T05:39:26.196Z,1.28
2023-08-18T05:41:53.638Z,1.18
2023-08-18T05:44:21.327Z,1.23
2023-08-18T05:46:48.922Z,1.07
2023-08-18T05:49:16.282Z,1.36
2023-08-18T05:51:43.792Z,1.00
2023-08-18T05:54:12.748Z,1.15
2023-08-18T05:56:42.045Z,1.47
2023-08-18T05:59:09.640Z,1.25
2023-08-18T06:01:37.314Z,1.25
2023-08-18T06:04:05.766Z,1.41
2023-08-18T06:06:33.385Z,1.17
2023-08-18T06:09:01.399Z,0.99
2023-08-18T06:11:28.842Z,1.24
2023-08-18T06:13:58.043Z,1.10
2023-08-18T06:16:25.592Z,1.02
2023-08-18T06:18:53.077Z,0.83
2023-08-18T06:21:20.602Z,0.73
2023-08-18T06:23:48.120Z,1.01
2023-08-18T06:26:15.483Z,1.24
2023-08-18T06:28:42.997Z,1.19
2023-08-18T06:31:11.898Z,0.98
2023-08-18T06:33:39.425Z,1.41
2023-08-18T06:36:07.409Z,1.17
2023-08-18T06:38:35.001Z,1.35
2023-08-18T06:41:02.511Z,1.12
2023-08-18T06:43:29.954Z,1.10
2023-08-18T06:45:57.621Z,1.07
2023-08-18T06:48:26.677Z,1.22
2023-08-18T06:50:54.205Z,1.00
2023-08-18T06:53:21.718Z,1.20
2023-08-18T06:56:02.200Z,0.92
2023-08-18T06:58:31.075Z,1.03
2023-08-18T07:00:58.679Z,1.06
2023-08-18T07:03:28.179Z,1.53
2023-08-18T07:05:55.876Z,1.13
2023-08-18T07:08:23.803Z,1.12
2023-08-18T07:10:51.177Z,0.97
2023-08-18T07:13:18.683Z,1.13
2023-08-18T07:15:46.146Z,1.11
2023-08-18T07:18:13.745Z,1.10
2023-08-18T07:20:44.927Z,0.99
2023-08-18T07:23:12.518Z,1.18
2023-08-18T07:25:40.438Z,1.19
2023-08-18T07:28:07.960Z,1.42
2023-08-18T07:30:35.810Z,1.06
2023-08-18T07:33:03.263Z,1.02
2023-08-18T07:35:31.563Z,1.06
2023-08-18T07:38:00.856Z,1.41
2023-08-18T07:40:28.457Z,1.21
2023-08-18T07:42:56.120Z,1.34
2023-08-18T07:45:23.876Z,1.36
2023-08-18T07:47:51.343Z,1.41
2023-08-18T07:50:18.918Z,1.78
2023-08-18T07:52:46.525Z,1.16
2023-08-18T07:55:15.568Z,1.42
2023-08-18T07:57:43.238Z,1.10
2023-08-18T08:00:12.200Z,1.12
2023-08-18T08:02:39.816Z,1.25
2023-08-18T08:05:08.685Z,1.47
2023-08-18T08:07:36.598Z,1.10
2023-08-18T08:10:05.386Z,1.37
2023-08-18T08:12:35.808Z,1.13
2023-08-18T08:15:03.719Z,1.28
2023-08-18T08:17:31.607Z,1.32
2023-08-18T08:19:59.480Z,1.00
2023-08-18T08:22:27.181Z,1.17
2023-08-18T08:24:55.016Z,1.32
2023-08-18T08:27:23.158Z,1.31
2023-08-18T08:29:52.283Z,1.45
2023-08-18T08:32:19.883Z,1.18
2023-08-18T08:34:50.601Z,1.32
2023-08-18T08:37:18.920Z,1.67
2023-08-18T08:39:47.961Z,1.62
2023-08-18T08:42:15.719Z,1.67
2023-08-18T08:44:43.249Z,1.32
2023-08-18T08:47:17.472Z,1.45
2023-08-18T08:49:47.648Z,1.46
2023-08-18T08:52:16.920Z,1.20
2023-08-18T08:54:51.158Z,1.12
2023-08-18T08:57:21.647Z,1.32
2023-08-18T08:59:49.314Z,1.23
2023-08-18T09:02:18.471Z,1.32
2023-08-18T09:04:45.965Z,1.16
2023-08-18T09:07:14.440Z,1.30
2023-08-18T09:09:42.763Z,1.27
2023-08-18T09:12:11.807Z,1.39
2023-08-18T09:14:40.855Z,1.03
2023-08-18T09:17:09.719Z,1.41
2023-08-18T09:19:39.327Z,1.02
2023-08-18T09:22:06.760Z,1.12
2023-08-18T09:24:34.680Z,1.70
2023-08-18T09:27:08.762Z,1.38
2023-08-18T09:29:39.163Z,1.25
2023-08-18T09:32:12.590Z,1.16
2023-08-18T09:34:44.047Z,1.35
2023-08-18T09:37:11.726Z,1.40
2023-08-18T09:39:40.108Z,1.25
2023-08-18T09:42:08.283Z,1.09
2023-08-18T09:44:35.737Z,1.06
2023-08-18T09:47:06.444Z,1.08
2023-08-18T09:49:36.849Z,1.09
2023-08-18T09:52:08.510Z,1.30
2023-08-18T09:54:47.513Z,1.35
2023-08-18T09:57:26.044Z,1.27
2023-08-18T09:59:56.598Z,1.38
2023-08-18T10:02:30.157Z,1.20
2023-08-18T10:04:58.481Z,1.33
2023-08-18T10:07:28.600Z,1.44
2023-08-18T10:09:57.560Z,1.41
2023-08-18T10:12:25.008Z,1.37
2023-08-18T10:14:55.005Z,1.39
2023-08-18T10:17:24.057Z,1.22
2023-08-18T10:19:54.275Z,1.35
2023-08-18T10:22:24.684Z,1.23
2023-08-18T10:24:54.859Z,1.34
2023-08-18T10:27:38.999Z,0.98
2023-08-18T10:30:29.801Z,1.38
2023-08-18T10:33:07.190Z,1.42
2023-08-18T10:35:37.159Z,1.21
2023-08-18T10:38:06.361Z,1.29
2023-08-18T10:40:37.474Z,1.10
2023-08-18T10:43:08.040Z,1.26
2023-08-18T10:45:36.401Z,1.14
2023-08-18T10:48:05.434Z,1.36
2023-08-18T10:50:37.082Z,1.20
2023-08-18T10:53:04.849Z,1.15
2023-08-18T10:55:34.371Z,1.29
2023-08-18T10:58:01.982Z,1.34
2023-08-18T11:00:33.033Z,1.37
2023-08-18T11:03:01.121Z,1.14
2023-08-18T11:05:31.400Z,1.67
2023-08-18T11:07:59.585Z,1.40
2023-08-18T11:10:28.921Z,1.25
2023-08-18T11:12:59.001Z,1.05
2023-08-18T11:15:26.788Z,1.21
2023-08-18T11:17:54.609Z,1.38
2023-08-18T11:20:22.290Z,1.22
2023-08-18T11:22:51.878Z,1.29
2023-08-18T11:25:20.694Z,1.14
2023-08-18T11:27:50.203Z,1.26
2023-08-18T11:30:19.800Z,1.26
2023-08-18T11:32:47.347Z,1.12
2023-08-18T11:35:15.878Z,1.14
2023-08-18T11:37:44.841Z,1.24
2023-08-18T11:40:14.519Z,1.28
2023-08-18T11:42:43.398Z,1.39
2023-08-18T11:45:11.874Z,1.17
2023-08-18T11:47:41.106Z,1.26
2023-08-18T11:50:09.089Z,1.38
2023-08-18T11:52:44.928Z,1.15
2023-08-18T11:55:13.647Z,1.05
2023-08-18T11:57:43.398Z,1.10
2023-08-18T12:00:14.362Z,1.14
2023-08-18T12:02:45.085Z,1.65
2023-08-18T12:05:22.615Z,1.22
2023-08-18T12:07:52.201Z,1.20
2023-08-18T12:10:20.359Z,1.23
2023-08-18T12:12:58.541Z,1.34
2023-08-18T12:15:27.114Z,1.09
2023-08-18T12:17:56.287Z,1.25
2023-08-18T12:20:24.214Z,1.16
2023-08-18T12:22:53.889Z,1.19
2023-08-18T12:25:22.204Z,1.02
2023-08-18T12:27:50.681Z,1.51
2023-08-18T12:30:19.978Z,2.07
2023-08-18T12:32:48.890Z,1.22
2023-08-18T12:35:18.513Z,1.35
2023-08-18T12:37:46.048Z,1.00
2023-08-18T12:40:13.973Z,1.05
2023-08-18T12:42:42.813Z,1.02
2023-08-18T12:45:11.957Z,0.84
2023-08-18T12:47:40.313Z,0.91
2023-08-18T12:50:08.764Z,1.12
2023-08-18T12:52:37.722Z,0.96
2023-08-18T12:55:05.960Z,0.82
2023-08-18T12:57:33.490Z,0.96
2023-08-18T13:00:01.003Z,0.86
2023-08-18T13:02:28.933Z,1.04
2023-08-18T13:04:56.928Z,0.97
2023-08-18T13:07:25.801Z,0.87
2023-08-18T13:09:54.920Z,0.92
2023-08-18T13:12:24.137Z,1.09
2023-08-18T13:14:51.660Z,0.90
2023-08-18T13:17:19.102Z,0.87
2023-08-18T13:19:49.139Z,0.86
2023-08-18T13:22:17.401Z,0.66
2023-08-18T13:24:44.840Z,0.83
2023-08-18T13:27:13.880Z,0.77
2023-08-18T13:29:41.400Z,1.29
2023-08-18T13:32:08.838Z,0.79
2023-08-18T13:34:36.437Z,0.82
2023-08-18T13:37:03.973Z,1.09
2023-08-18T13:39:31.389Z,0.79
2023-08-18T13:41:58.793Z,0.78
2023-08-18T13:44:28.127Z,0.79
2023-08-18T13:46:55.562Z,0.73
2023-08-18T13:49:23.160Z,0.66
2023-08-18T13:51:50.761Z,0.80
2023-08-18T13:54:18.445Z,0.73
2023-08-18T13:56:46.142Z,0.74
2023-08-18T13:59:14.039Z,0.75
2023-08-18T14:01:43.240Z,0.61
2023-08-18T14:04:10.842Z,0.86
2023-08-18T14:06:38.368Z,0.91
2023-08-18T14:09:06.203Z,0.95
2023-08-18T14:11:33.798Z,0.65
2023-08-18T14:14:01.238Z,0.55
2023-08-18T14:16:29.141Z,0.72
2023-08-18T14:18:58.440Z,0.73
2023-08-18T14:21:27.002Z,0.87
2023-08-18T14:23:54.681Z,0.69
2023-08-18T14:26:22.277Z,0.85
2023-08-18T14:28:49.885Z,0.78
2023-08-18T14:31:18.138Z,0.69
2023-08-18T14:33:47.356Z,0.71
2023-08-18T14:36:16.923Z,0.82
2023-08-18T14:38:44.611Z,0.72
2023-08-18T14:41:12.222Z,0.93
2023-08-18T14:43:39.908Z,0.79
2023-08-18T14:46:07.550Z,0.64
2023-08-18T14:48:35.241Z,0.62
2023-08-18T14:51:02.768Z,0.62
2023-08-18T14:53:31.728Z,0.77
2023-08-18T14:55:59.343Z,0.75
2023-08-18T14:58:27.809Z,0.56
2023-08-18T15:00:55.806Z,0.67
2023-08-18T15:03:24.067Z,0.75
2023-08-18T15:05:51.810Z,0.82
2023-08-18T15:08:20.450Z,0.79
2023-08-18T15:10:49.768Z,0.79
2023-08-18T15:13:17.321Z,0.93
2023-08-18T15:15:44.911Z,0.88
2023-08-18T15:18:12.580Z,0.77
2023-08-18T15:20:40.135Z,0.73
2023-08-18T15:23:07.641Z,0.79
2023-08-18T15:25:36.765Z,0.78
2023-08-18T15:28:06.358Z,0.76
2023-08-18T15:30:33.804Z,0.74
2023-08-18T15:33:01.425Z,0.80
2023-08-18T15:35:28.840Z,0.68
2023-08-18T15:37:56.281Z,0.63
2023-08-18T15:40:23.804Z,0.88
2023-08-18T15:42:51.328Z,0.73
2023-08-18T15:45:20.391Z,0.66
2023-08-18T15:47:47.917Z,0.58
2023-08-18T15:50:15.644Z,0.81
2023-08-18T15:52:42.846Z,0.72
2023-08-18T15:55:10.525Z,0.80
2023-08-18T15:57:38.044Z,0.79
2023-08-18T16:00:07.092Z,0.97
2023-08-18T16:02:36.049Z,0.64
2023-08-18T16:05:03.723Z,0.87
2023-08-18T16:07:31.525Z,0.73
2023-08-18T16:09:59.515Z,0.88
2023-08-18T16:12:27.162Z,0.91
2023-08-18T16:17:25.223Z,0.90
2023-08-18T16:19:54.440Z,0.84
2023-08-18T16:22:21.882Z,0.90
2023-08-18T16:24:49.409Z,0.76
2023-08-18T16:27:16.926Z,0.83
2023-08-18T16:29:44.283Z,0.70
2023-08-18T16:32:11.801Z,0.88
2023-08-18T16:34:39.170Z,0.83
2023-08-18T16:37:08.286Z,0.99
2023-08-18T16:39:35.723Z,0.79
2023-08-18T16:42:03.323Z,0.91
2023-08-18T16:44:30.846Z,1.07
2023-08-18T16:46:59.566Z,0.79
2023-08-18T16:49:28.129Z,0.87
2023-08-18T16:51:55.568Z,0.92
2023-08-18T16:54:24.314Z,0.81
2023-08-18T16:56:52.125Z,0.79
2023-08-18T16:59:19.579Z,0.84
2023-08-18T17:01:47.092Z,0.82
2023-08-18T17:04:15.126Z,0.87
2023-08-18T17:06:42.763Z,1.11
2023-08-18T17:09:10.292Z,1.17
2023-08-18T17:11:41.164Z,1.08
2023-08-18T17:14:08.684Z,1.20
2023-08-18T17:16:36.216Z,1.26
2023-08-18T17:19:03.721Z,1.14
2023-08-18T17:21:31.244Z,1.30
2023-08-18T17:23:58.759Z,1.15
2023-08-18T17:26:26.288Z,0.94
2023-08-18T17:28:55.164Z,1.31
2023-08-18T17:31:22.843Z,1.21
2023-08-18T17:33:50.370Z,1.19
2023-08-18T17:36:17.681Z,1.43
2023-08-18T17:38:45.083Z,1.20
2023-08-18T17:41:12.763Z,1.46
2023-08-18T17:43:40.216Z,1.36
2023-08-18T17:46:09.337Z,1.34
2023-08-18T17:48:36.861Z,1.39
2023-08-18T17:51:05.165Z,1.61
2023-08-18T17:53:33.813Z,1.40
2023-08-18T17:56:01.971Z,1.59
2023-08-18T17:58:29.482Z,1.66
2023-08-18T18:01:00.041Z,1.61
2023-08-18T18:03:29.333Z,1.84
2023-08-18T18:05:56.883Z,1.58
2023-08-18T18:08:25.081Z,1.95
2023-08-18T18:10:52.605Z,1.77
2023-08-18T18:13:20.125Z,1.58
2023-08-18T18:15:49.134Z,1.16
2023-08-18T18:18:16.785Z,0.92
2023-08-18T18:20:45.811Z,1.00
2023-08-18T18:23:13.326Z,0.79
2023-08-18T18:25:40.840Z,1.12
2023-08-18T18:28:08.209Z,1.62
2023-08-18T18:30:36.857Z,1.41
2023-08-18T18:33:05.208Z,1.52
2023-08-18T18:35:32.933Z,1.47
2023-08-18T18:38:02.962Z,1.39
2023-08-18T18:40:31.418Z,1.48
2023-08-18T18:42:58.842Z,1.48
2023-08-18T18:45:26.525Z,1.72
2023-08-18T18:47:54.071Z,1.64
2023-08-18T18:50:21.679Z,1.42
2023-08-18T18:52:49.380Z,1.43
2023-08-18T18:55:18.532Z,1.63
2023-08-18T18:57:46.061Z,1.37
2023-08-18T19:00:15.252Z,1.42
2023-08-18T19:02:43.092Z,1.27
2023-08-18T19:05:10.842Z,1.37
2023-08-18T19:07:38.520Z,1.40
2023-08-18T19:10:07.414Z,1.99
2023-08-18T19:12:37.003Z,2.27
2023-08-18T19:15:05.315Z,2.00
2023-08-18T19:17:33.168Z,1.79
2023-08-18T19:20:00.710Z,1.58
2023-08-18T19:22:33.735Z,1.67
2023-08-18T19:25:01.737Z,1.59
2023-08-18T19:27:31.391Z,1.80
2023-08-18T19:30:00.933Z,1.78
2023-08-18T19:32:28.566Z,1.62
2023-08-18T19:34:56.207Z,1.70
2023-08-18T19:37:23.802Z,1.66
2023-08-18T19:39:51.164Z,1.67
2023-08-18T19:42:18.764Z,1.63
2023-08-18T19:44:46.283Z,1.62
2023-08-18T19:47:15.330Z,1.43
2023-08-18T19:49:43.002Z,1.50
2023-08-18T19:52:10.525Z,1.69
2023-08-18T19:54:37.960Z,1.56
2023-08-18T19:57:05.569Z,1.60
2023-08-18T19:59:33.257Z,1.41
2023-08-18T20:02:00.760Z,1.50
2023-08-18T20:04:30.304Z,1.73
2023-08-18T20:06:57.888Z,1.60
2023-08-18T20:09:26.442Z,1.48
2023-08-18T20:11:54.041Z,1.77
2023-08-18T20:14:21.572Z,1.87
2023-08-18T20:16:49.072Z,1.69
2023-08-18T20:19:17.246Z,1.82
2023-08-18T20:21:46.448Z,1.75
2023-08-18T20:24:13.882Z,1.79
2023-08-18T20:26:41.401Z,1.50
2023-08-18T20:29:08.846Z,1.49
2023-08-18T20:31:36.292Z,1.81
2023-08-18T20:34:03.967Z,1.65
2023-08-18T20:36:31.561Z,1.62
2023-08-18T20:39:00.524Z,1.59
2023-08-18T20:41:28.122Z,1.46
2023-08-18T20:43:55.738Z,1.70
2023-08-18T20:46:23.310Z,1.49
2023-08-18T20:48:51.017Z,1.97
2023-08-18T20:51:18.540Z,1.88
2023-08-18T20:53:49.008Z,1.68
2023-08-18T20:56:18.222Z,1.77
2023-08-18T20:58:45.747Z,1.83
2023-08-18T21:01:13.265Z,1.65
2023-08-18T21:03:41.415Z,1.85
2023-08-18T21:06:09.101Z,1.66
2023-08-18T21:08:36.544Z,1.65
2023-08-18T21:11:03.910Z,1.64
2023-08-18T21:13:33.360Z,1.77
2023-08-18T21:16:01.442Z,1.79
2023-08-18T21:18:29.187Z,1.44
2023-08-18T21:20:57.184Z,1.57
2023-08-18T21:23:24.628Z,1.68
2023-08-18T21:25:52.544Z,1.79
2023-08-18T21:28:20.062Z,1.52
2023-08-18T21:30:49.024Z,1.72
2023-08-18T21:33:16.619Z,1.54
2023-08-18T21:35:45.418Z,1.60
2023-08-18T21:38:12.863Z,1.54
2023-08-18T21:40:40.307Z,1.60
2023-08-18T21:43:07.821Z,1.55
2023-08-18T21:45:35.313Z,1.53
2023-08-18T21:48:04.892Z,1.97
2023-08-18T21:50:32.384Z,1.45
2023-08-18T21:52:59.901Z,1.50
2023-08-18T21:55:27.418Z,1.52
2023-08-18T21:57:54.940Z,1.57
2023-08-18T22:00:22.393Z,1.78
2023-08-18T22:02:50.150Z,1.69
2023-08-18T22:05:19.177Z,1.78
2023-08-18T22:07:46.737Z,1.99
2023-08-18T22:10:15.534Z,1.61
2023-08-18T22:12:43.978Z,1.65
2023-08-18T22:15:11.748Z,1.51
2023-08-18T22:17:39.396Z,1.35
2023-08-18T22:20:08.979Z,1.69
2023-08-18T22:22:38.451Z,1.98
2023-08-18T22:25:07.108Z,1.55
2023-08-18T22:27:34.703Z,1.68
2023-08-18T22:30:02.154Z,1.51
2023-08-18T22:32:30.078Z,1.75
2023-08-18T22:34:58.323Z,1.38
2023-08-18T22:37:26.458Z,1.49
2023-08-18T22:39:56.864Z,1.56
2023-08-18T22:42:24.389Z,1.48
2023-08-18T22:44:51.977Z,1.36
2023-08-18T22:47:19.577Z,1.42
2023-08-18T22:49:48.217Z,1.51
2023-08-18T22:52:15.818Z,1.42
2023-08-18T22:54:43.417Z,1.42
2023-08-18T22:57:13.257Z,1.41
2023-08-18T22:59:40.882Z,1.52
2023-08-18T23:02:09.033Z,1.54
2023-08-18T23:04:36.621Z,1.49
2023-08-18T23:07:04.285Z,1.32
2023-08-18T23:09:32.457Z,1.63
2023-08-18T23:11:59.907Z,1.51
2023-08-18T23:14:28.863Z,1.46
2023-08-18T23:16:56.606Z,1.45
2023-08-18T23:19:24.236Z,1.59
2023-08-18T23:21:51.739Z,1.32
2023-08-18T23:24:19.340Z,1.42
2023-08-18T23:26:46.785Z,1.59
2023-08-18T23:29:14.293Z,1.47
2023-08-18T23:31:43.340Z,1.58
2023-08-18T23:34:10.703Z,1.40
2023-08-18T23:36:38.220Z,1.39
2023-08-18T23:39:06.461Z,1.43
2023-08-18T23:41:33.837Z,1.56
2023-08-18T23:44:01.341Z,1.24
2023-08-18T23:46:28.886Z,1.29
2023-08-18T23:48:57.912Z,1.46
2023-08-18T23:51:25.513Z,1.51
2023-08-18T23:53:53.028Z,1.31
2023-08-18T23:56:20.316Z,1.57
2023-08-18T23:58:47.905Z,1.26
